createdAt,value
2018-09-03T00:01:30.819Z,3.93
2018-09-03T00:04:05.440Z,3.80
2018-09-03T00:06:40.030Z,3.70
2018-09-03T00:09:14.456Z,3.87
2018-09-03T00:11:48.857Z,3.40
2018-09-03T00:14:36.246Z,3.57
2018-09-03T00:17:10.829Z,3.30
2018-09-03T00:19:45.372Z,4.10
2018-09-03T00:22:19.952Z,3.83
2018-09-03T00:24:54.532Z,4.00
2018-09-03T00:27:28.975Z,3.70
2018-09-03T00:30:03.473Z,3.73
2018-09-03T00:32:43.348Z,3.50
2018-09-03T00:35:23.280Z,3.40
2018-09-03T00:38:03.184Z,3.20
2018-09-03T00:40:43.019Z,3.67
2018-09-03T00:43:22.884Z,3.40
2018-09-03T00:47:06.528Z,3.20
2018-09-03T00:49:41.621Z,3.43
2018-09-03T00:52:16.200Z,3.67
2018-09-03T00:54:50.969Z,3.50
2018-09-03T00:57:25.540Z,3.83
2018-09-03T01:00:00.099Z,3.27
2018-09-03T01:02:34.755Z,3.50
2018-09-03T01:05:09.287Z,4.47
2018-09-03T01:07:43.724Z,3.83
2018-09-03T01:10:18.125Z,3.57
2018-09-03T01:12:52.812Z,3.87
2018-09-03T01:15:29.756Z,4.07
2018-09-03T01:18:04.607Z,3.57
2018-09-03T01:20:39.016Z,3.60
2018-09-03T01:26:20.955Z,4.23
2018-09-03T01:28:55.557Z,3.70
2018-09-03T01:31:30.237Z,3.40
2018-09-03T01:34:05.257Z,4.07
2018-09-03T01:36:39.912Z,4.70
2018-09-03T01:39:14.440Z,4.97
2018-09-03T01:41:49.030Z,3.60
2018-09-03T01:44:23.536Z,4.20
2018-09-03T01:46:58.225Z,4.40
2018-09-03T01:49:32.784Z,4.80
2018-09-03T01:52:07.638Z,5.20
2018-09-03T01:54:42.356Z,5.03
2018-09-03T01:57:17.365Z,4.47
2018-09-03T01:59:52.040Z,5.20
2018-09-03T02:02:26.549Z,5.00
2018-09-03T02:05:01.228Z,4.50
2018-09-03T02:07:35.864Z,4.27
2018-09-03T02:10:10.844Z,4.23
2018-09-03T02:12:45.220Z,4.23
2018-09-03T02:15:19.781Z,4.43
2018-09-03T02:17:54.482Z,4.63
2018-09-03T02:20:29.064Z,4.60
2018-09-03T02:23:03.920Z,4.40
2018-09-03T02:25:38.636Z,4.50
2018-09-03T02:28:13.208Z,4.60
2018-09-03T02:30:47.698Z,4.60
2018-09-03T02:33:22.226Z,4.67
2018-09-03T02:35:56.946Z,4.47
2018-09-03T02:38:31.464Z,4.50
2018-09-03T02:41:06.648Z,4.60
2018-09-03T02:43:41.637Z,4.40
2018-09-03T02:46:16.128Z,4.27
2018-09-03T02:48:50.684Z,4.90
2018-09-03T02:51:25.359Z,5.20
2018-09-03T02:54:06.193Z,4.70
2018-09-03T02:56:48.403Z,4.50
2018-09-03T03:02:21.613Z,4.73
2018-09-03T03:04:56.276Z,5.17
2018-09-03T03:07:30.928Z,5.03
2018-09-03T03:10:05.836Z,4.70
2018-09-03T03:12:40.365Z,4.23
2018-09-03T03:15:18.901Z,4.40
2018-09-03T03:17:53.404Z,4.37
2018-09-03T03:20:28.083Z,4.40
2018-09-03T03:23:02.604Z,5.10
2018-09-03T03:25:37.484Z,4.30
2018-09-03T03:28:11.908Z,4.40
2018-09-03T03:30:46.361Z,4.80
2018-09-03T03:33:20.801Z,4.30
2018-09-03T03:35:55.244Z,4.50
2018-09-03T03:38:29.720Z,4.50
2018-09-03T03:41:04.409Z,4.67
2018-09-03T03:43:38.925Z,5.43
2018-09-03T03:46:14.085Z,5.13
2018-09-03T03:48:48.695Z,5.10
2018-09-03T03:51:23.272Z,5.00
2018-09-03T03:53:57.947Z,5.03
2018-09-03T03:56:32.580Z,5.10
2018-09-03T03:59:07.169Z,4.23
2018-09-03T04:01:41.800Z,4.90
2018-09-03T04:04:16.427Z,5.27
2018-09-03T04:06:51.056Z,5.23
2018-09-03T04:09:25.491Z,4.83
2018-09-03T04:12:00.049Z,6.10
2018-09-03T04:14:34.673Z,5.27
2018-09-03T04:17:09.396Z,5.13
2018-09-03T04:19:48.198Z,6.43
2018-09-03T04:22:22.748Z,5.90
2018-09-03T04:24:57.601Z,5.63
2018-09-03T04:27:32.276Z,6.30
2018-09-03T04:30:07.321Z,6.87
2018-09-03T04:32:41.884Z,5.93
2018-09-03T04:35:16.570Z,5.80
2018-09-03T04:37:51.336Z,5.53
2018-09-03T04:40:26.072Z,5.77
2018-09-03T04:43:00.684Z,5.47
2018-09-03T04:45:35.281Z,7.03
2018-09-03T04:48:09.912Z,6.03
2018-09-03T04:50:44.432Z,5.60
2018-09-03T04:53:19.145Z,6.27
2018-09-03T04:55:53.764Z,5.33
2018-09-03T04:58:28.297Z,5.60
2018-09-03T05:01:02.760Z,5.63
2018-09-03T05:03:37.567Z,5.07
2018-09-03T05:06:12.142Z,6.40
2018-09-03T05:08:46.684Z,6.27
2018-09-03T05:11:21.285Z,5.90
2018-09-03T05:13:55.909Z,6.73
2018-09-03T05:16:30.776Z,6.53
2018-09-03T05:19:05.649Z,6.43
2018-09-03T05:21:40.211Z,7.10
2018-09-03T05:24:14.781Z,6.37
2018-09-03T05:26:49.564Z,6.30
2018-09-03T05:29:24.468Z,6.03
2018-09-03T05:31:59.007Z,5.67
2018-09-03T05:34:33.907Z,6.23
2018-09-03T05:37:08.389Z,5.17
2018-09-03T05:39:43.279Z,5.60
2018-09-03T05:42:18.045Z,5.13
2018-09-03T05:44:52.690Z,5.50
2018-09-03T05:47:27.417Z,5.70
2018-09-03T05:50:02.137Z,6.20
2018-09-03T05:52:37.121Z,6.23
2018-09-03T05:55:12.069Z,5.87
2018-09-03T05:57:46.516Z,6.57
2018-09-03T06:00:21.338Z,6.03
2018-09-03T06:02:55.876Z,5.73
2018-09-03T06:05:30.296Z,5.97
2018-09-03T06:08:05.027Z,6.13
2018-09-03T06:10:40.020Z,5.90
2018-09-03T06:13:14.472Z,5.53
2018-09-03T06:15:49.172Z,6.13
2018-09-03T06:18:24.109Z,5.63
2018-09-03T06:20:59.145Z,5.80
2018-09-03T06:23:33.927Z,6.00
2018-09-03T06:26:08.449Z,6.40
2018-09-03T06:28:42.949Z,6.23
2018-09-03T06:31:17.592Z,6.17
2018-09-03T06:33:52.308Z,6.50
2018-09-03T06:36:26.985Z,6.37
2018-09-03T06:39:01.465Z,6.27
2018-09-03T06:41:35.981Z,7.33
2018-09-03T06:44:11.022Z,7.03
2018-09-03T06:46:45.546Z,7.97
2018-09-03T06:49:24.112Z,7.30
2018-09-03T06:57:56.826Z,7.77
2018-09-03T07:00:31.685Z,8.33
2018-09-03T07:09:08.401Z,7.80
2018-09-03T07:11:43.108Z,9.53
2018-09-03T07:14:17.710Z,7.60
2018-09-03T07:16:52.429Z,7.73
2018-09-03T07:19:27.463Z,8.63
2018-09-03T07:22:02.068Z,8.10
2018-09-03T07:24:36.934Z,7.90
2018-09-03T07:27:11.313Z,9.13
2018-09-03T07:29:45.767Z,8.60
2018-09-03T07:32:20.369Z,8.53
2018-09-03T07:34:54.984Z,8.70
2018-09-03T07:37:29.599Z,8.60
2018-09-03T07:40:04.236Z,8.17
2018-09-03T07:42:38.842Z,8.07
2018-09-03T07:45:13.376Z,8.87
2018-09-03T07:47:47.960Z,9.10
2018-09-03T07:50:22.894Z,9.17
2018-09-03T07:52:57.844Z,9.03
2018-09-03T07:55:32.232Z,8.40
2018-09-03T07:58:09.224Z,10.10
2018-09-03T08:00:43.722Z,8.60
2018-09-03T08:03:18.776Z,8.33
2018-09-03T08:05:53.493Z,8.73
2018-09-03T08:08:28.098Z,9.07
2018-09-03T08:11:02.716Z,8.87
2018-09-03T08:13:41.852Z,8.97
2018-09-03T08:16:16.605Z,9.67
2018-09-03T08:18:51.222Z,9.30
2018-09-03T08:21:25.789Z,9.37
2018-09-03T08:24:00.328Z,9.87
2018-09-03T08:26:34.794Z,8.73
2018-09-03T08:29:09.526Z,8.57
2018-09-03T08:31:44.828Z,9.30
2018-09-03T08:34:20.104Z,10.00
2018-09-03T08:36:54.432Z,8.67
2018-09-03T08:39:28.950Z,9.23
2018-09-03T08:42:03.620Z,9.10
2018-09-03T08:44:39.701Z,10.27
2018-09-03T08:47:14.225Z,10.37
2018-09-03T08:49:48.866Z,10.20
2018-09-03T08:52:23.530Z,10.03
2018-09-03T08:55:00.160Z,10.23
2018-09-03T08:57:35.366Z,10.93
2018-09-03T09:00:10.073Z,11.80
2018-09-03T09:02:44.617Z,10.87
2018-09-03T09:05:19.108Z,10.63
2018-09-03T09:07:53.820Z,11.93
2018-09-03T09:10:28.521Z,10.77
2018-09-03T09:13:03.150Z,11.17
2018-09-03T09:15:37.672Z,11.40
2018-09-03T09:18:12.252Z,11.03
2018-09-03T09:20:47.427Z,11.10
2018-09-03T09:23:21.842Z,12.27
2018-09-03T09:25:56.504Z,12.30
2018-09-03T09:28:31.077Z,11.23
2018-09-03T09:31:19.546Z,11.37
2018-09-03T09:33:54.129Z,10.23
2018-09-03T09:36:28.846Z,11.10
2018-09-03T09:39:03.740Z,12.20
2018-09-03T09:41:38.185Z,10.87
2018-09-03T09:44:12.685Z,11.07
2018-09-03T09:46:47.316Z,11.47
2018-09-03T09:49:23.489Z,9.73
2018-09-03T09:52:16.564Z,10.43
2018-09-03T09:54:51.392Z,9.70
2018-09-03T09:57:33.804Z,9.67
2018-09-03T10:00:11.168Z,9.60
2018-09-03T10:02:45.621Z,8.97
2018-09-03T10:05:20.351Z,9.83
2018-09-03T10:07:54.915Z,9.10
2018-09-03T10:10:29.756Z,9.17
2018-09-03T10:13:04.448Z,8.70
2018-09-03T10:15:39.381Z,9.60
2018-09-03T10:18:14.056Z,10.07
2018-09-03T10:20:48.811Z,9.53
2018-09-03T10:23:23.316Z,9.13
2018-09-03T10:25:58.185Z,9.43
2018-09-03T10:28:34.720Z,9.40
2018-09-03T10:31:09.117Z,9.57
2018-09-03T10:33:43.441Z,9.50
2018-09-03T10:36:17.941Z,9.33
2018-09-03T10:38:52.504Z,8.10
2018-09-03T10:41:27.022Z,9.77
2018-09-03T10:47:02.707Z,9.53
2018-09-03T10:49:37.052Z,9.10
2018-09-03T10:52:11.619Z,8.47
2018-09-03T10:54:46.137Z,8.97
2018-09-03T10:57:20.821Z,8.97
2018-09-03T10:59:55.240Z,9.03
2018-09-03T11:02:30.181Z,8.07
2018-09-03T11:05:04.865Z,9.00
2018-09-03T11:07:40.495Z,9.07
2018-09-03T11:10:14.972Z,8.27
2018-09-03T11:12:49.558Z,8.17
2018-09-03T11:15:24.545Z,10.00
2018-09-03T11:17:58.939Z,8.47
2018-09-03T11:20:33.565Z,8.37
2018-09-03T11:23:08.073Z,9.70
2018-09-03T11:25:42.768Z,9.80
2018-09-03T11:28:17.412Z,10.43
2018-09-03T11:30:52.313Z,9.43
2018-09-03T11:33:44.948Z,9.17
2018-09-03T11:36:37.965Z,10.63
2018-09-03T11:39:13.113Z,10.77
2018-09-03T11:41:47.536Z,10.40
2018-09-03T11:44:22.140Z,10.13
2018-09-03T11:46:56.749Z,11.37
2018-09-03T11:49:31.568Z,10.83
2018-09-03T11:52:06.265Z,11.17
2018-09-03T11:54:52.068Z,11.97
2018-09-03T11:57:36.257Z,11.80
2018-09-03T12:00:13.725Z,12.93
2018-09-03T12:02:48.397Z,12.50
2018-09-03T12:05:23.029Z,14.13
2018-09-03T12:07:57.667Z,13.80
2018-09-03T12:10:32.117Z,13.37
2018-09-03T12:13:06.728Z,12.70
2018-09-03T12:15:45.344Z,14.47
2018-09-03T12:18:19.904Z,11.07
2018-09-03T12:20:54.541Z,9.80
2018-09-03T12:23:29.271Z,10.10
2018-09-03T12:26:03.875Z,10.30
2018-09-03T12:28:38.624Z,10.17
2018-09-03T12:31:13.315Z,10.10
2018-09-03T12:33:47.953Z,9.30
2018-09-03T12:36:22.216Z,9.60
2018-09-03T12:38:56.587Z,9.73
2018-09-03T12:41:30.969Z,10.67
2018-09-03T12:44:05.433Z,9.73
2018-09-03T12:46:39.853Z,10.03
2018-09-03T12:49:14.257Z,10.13
2018-09-03T12:51:48.725Z,10.03
2018-09-03T12:54:22.907Z,10.37
2018-09-03T12:56:57.588Z,12.33
2018-09-03T12:59:32.060Z,13.40
2018-09-03T13:02:07.668Z,12.90
2018-09-03T13:04:41.850Z,13.47
2018-09-03T13:07:16.483Z,13.13
2018-09-03T13:09:51.015Z,12.03
2018-09-03T13:12:25.360Z,12.67
2018-09-03T13:14:59.756Z,11.93
2018-09-03T13:17:34.249Z,11.13
2018-09-03T13:20:08.635Z,11.17
2018-09-03T13:22:43.106Z,12.97
2018-09-03T13:25:18.229Z,12.63
2018-09-03T13:27:52.699Z,12.43
2018-09-03T13:30:27.340Z,13.27
2018-09-03T13:33:01.851Z,13.03
2018-09-03T13:35:36.190Z,12.50
2018-09-03T13:38:10.561Z,12.83
2018-09-03T13:40:45.133Z,11.90
2018-09-03T13:43:19.624Z,14.70
2018-09-03T13:45:56.884Z,13.50
2018-09-03T13:48:44.099Z,13.43
2018-09-03T13:51:18.538Z,14.37
2018-09-03T13:53:53.816Z,13.70
2018-09-03T13:56:28.642Z,13.63
2018-09-03T13:59:03.026Z,13.70
2018-09-03T14:01:37.495Z,14.77
2018-09-03T14:04:21.723Z,14.00
2018-09-03T14:10:03.563Z,16.17
2018-09-03T14:12:37.827Z,16.83
2018-09-03T14:15:24.643Z,17.20
2018-09-03T14:17:59.051Z,15.03
2018-09-03T14:20:33.756Z,14.07
2018-09-03T14:23:08.356Z,15.40
2018-09-03T14:25:52.122Z,14.10
2018-09-03T14:28:26.883Z,14.57
2018-09-03T14:31:01.413Z,15.30
2018-09-03T14:36:35.703Z,14.13
2018-09-03T14:39:11.420Z,13.97
2018-09-03T14:41:46.495Z,14.83
2018-09-03T14:44:20.810Z,14.40
2018-09-03T14:46:55.466Z,14.93
2018-09-03T14:49:30.955Z,15.43
2018-09-03T14:52:05.794Z,16.70
2018-09-03T14:54:40.215Z,15.07
2018-09-03T14:57:14.774Z,16.00
2018-09-03T15:02:48.527Z,15.07
2018-09-03T15:05:23.198Z,15.37
2018-09-03T15:07:57.489Z,15.73
2018-09-03T15:10:50.935Z,15.33
2018-09-03T15:13:40.660Z,15.57
2018-09-03T15:16:15.193Z,15.13
2018-09-03T15:18:49.745Z,14.83
2018-09-03T15:21:24.204Z,13.47
2018-09-03T15:23:58.736Z,14.43
2018-09-03T15:26:33.170Z,14.40
2018-09-03T15:29:08.057Z,15.53
2018-09-03T15:31:42.535Z,14.10
2018-09-03T15:37:40.599Z,15.00
2018-09-03T15:40:15.128Z,15.53
2018-09-03T15:42:49.914Z,16.03
2018-09-03T15:45:24.103Z,16.03
2018-09-03T15:47:58.843Z,16.40
2018-09-03T15:50:33.046Z,16.47
2018-09-03T15:53:07.672Z,15.33
2018-09-03T15:55:43.283Z,16.03
2018-09-03T15:58:18.148Z,16.13
2018-09-03T16:00:52.658Z,14.97
2018-09-03T16:03:27.119Z,16.23
2018-09-03T16:14:58.065Z,17.67
2018-09-03T16:17:32.355Z,17.60
2018-09-03T16:20:06.763Z,18.70
2018-09-03T16:22:41.190Z,17.40
2018-09-03T16:25:15.875Z,17.37
2018-09-03T16:27:50.382Z,20.57
2018-09-03T16:30:24.729Z,19.37
2018-09-03T16:32:59.189Z,16.63
2018-09-03T16:35:33.496Z,16.77
2018-09-03T16:38:07.884Z,16.97
2018-09-03T16:40:42.347Z,16.57
2018-09-03T16:43:16.741Z,15.67
2018-09-03T16:45:51.040Z,15.30
2018-09-03T16:48:25.600Z,16.07
2018-09-03T16:51:00.027Z,16.70
2018-09-03T16:53:34.738Z,15.07
2018-09-03T16:56:10.028Z,15.40
2018-09-03T16:58:44.568Z,16.87
2018-09-03T17:01:19.163Z,15.43
2018-09-03T17:03:53.380Z,16.20
2018-09-03T17:06:27.889Z,15.50
2018-09-03T17:09:02.303Z,16.87
2018-09-03T17:11:36.687Z,16.50
2018-09-03T17:14:11.068Z,15.30
2018-09-03T17:16:45.598Z,16.43
2018-09-03T17:19:20.450Z,16.33
2018-09-03T17:21:54.824Z,17.27
2018-09-03T17:24:29.424Z,17.23
2018-09-03T17:27:04.018Z,18.10
2018-09-03T17:29:38.316Z,16.60
2018-09-03T17:32:12.732Z,17.10
2018-09-03T17:34:47.352Z,17.50
2018-09-03T17:37:21.724Z,17.77
2018-09-03T17:39:56.157Z,16.97
2018-09-03T17:42:30.977Z,18.30
2018-09-03T17:45:06.568Z,17.20
2018-09-03T17:47:41.416Z,17.73
2018-09-03T17:50:16.226Z,18.77
2018-09-03T17:52:50.894Z,18.57
2018-09-03T17:55:43.973Z,18.10
2018-09-03T17:58:18.608Z,17.00
2018-09-03T18:00:53.233Z,17.57
2018-09-03T18:03:28.126Z,19.20
2018-09-03T18:06:02.860Z,18.13
2018-09-03T18:08:37.653Z,19.10
2018-09-03T18:11:12.339Z,19.13
2018-09-03T18:13:47.419Z,19.33
2018-09-03T18:16:22.744Z,19.77
2018-09-03T18:18:57.357Z,18.80
2018-09-03T18:21:32.112Z,20.13
2018-09-03T18:24:07.209Z,20.73
2018-09-03T18:26:43.203Z,20.60
2018-09-03T18:29:30.125Z,20.73
2018-09-03T18:32:05.117Z,21.43
2018-09-03T18:34:39.801Z,19.90
2018-09-03T18:37:14.662Z,21.47
2018-09-03T18:39:52.981Z,22.73
2018-09-03T18:42:32.182Z,22.50
2018-09-03T18:45:12.256Z,22.37
2018-09-03T18:47:47.353Z,23.30
2018-09-03T18:50:39.899Z,22.83
2018-09-03T18:53:19.852Z,23.17
2018-09-03T18:55:54.403Z,23.50
2018-09-03T18:58:47.592Z,21.80
2018-09-03T19:01:24.252Z,23.70
2018-09-03T19:03:59.057Z,23.07
2018-09-03T19:06:33.473Z,22.37
2018-09-03T19:09:09.105Z,21.83
2018-09-03T19:11:45.460Z,22.63
2018-09-03T19:14:43.061Z,20.63
2018-09-03T19:17:17.629Z,20.67
2018-09-03T19:19:52.218Z,20.37
2018-09-03T19:22:32.761Z,24.03
2018-09-03T19:25:07.517Z,23.07
2018-09-03T19:27:42.434Z,24.60
2018-09-03T19:30:17.308Z,24.30
2018-09-03T19:35:51.544Z,25.03
2018-09-03T19:38:26.399Z,25.20
2018-09-03T19:41:01.465Z,22.20
2018-09-03T19:43:36.001Z,22.97
2018-09-03T19:46:10.734Z,22.33
2018-09-03T19:48:45.495Z,22.57
2018-09-03T19:51:20.256Z,20.70
2018-09-03T19:54:05.727Z,20.90
2018-09-03T19:59:39.877Z,23.43
2018-09-03T20:02:16.202Z,24.17
2018-09-03T20:04:50.974Z,22.23
2018-09-03T20:07:27.606Z,23.57
2018-09-03T20:10:09.388Z,24.53
2018-09-03T20:12:44.284Z,21.20
2018-09-03T20:15:25.126Z,20.40
2018-09-03T20:17:59.870Z,21.93
2018-09-03T20:20:34.750Z,26.53
2018-09-03T20:23:13.238Z,26.37
2018-09-03T20:25:47.721Z,27.07
2018-09-03T20:28:24.015Z,26.37
2018-09-03T20:30:58.485Z,25.50
2018-09-03T20:33:33.006Z,21.43
2018-09-03T20:36:07.557Z,22.03
2018-09-03T20:38:42.026Z,22.87
2018-09-03T20:41:17.009Z,23.13
2018-09-03T20:43:51.510Z,22.90
2018-09-03T20:46:26.230Z,23.57
2018-09-03T20:49:07.041Z,24.07
2018-09-03T20:54:46.487Z,25.60
2018-09-03T20:57:28.201Z,26.10
2018-09-03T21:00:02.919Z,26.90
2018-09-03T21:02:37.665Z,28.63
2018-09-03T21:05:12.352Z,28.10
2018-09-03T21:07:46.950Z,24.10
2018-09-03T21:10:21.530Z,24.03
2018-09-03T21:12:56.134Z,25.70
2018-09-03T21:18:29.697Z,28.80
2018-09-03T21:24:09.571Z,32.40
2018-09-03T21:26:57.596Z,36.10
2018-09-03T21:29:32.342Z,37.00
2018-09-03T21:32:06.981Z,34.20
2018-09-03T21:34:41.853Z,35.67
2018-09-03T21:37:16.567Z,37.83
2018-09-03T21:39:51.133Z,35.00
2018-09-03T21:42:25.793Z,34.93
2018-09-03T21:45:00.361Z,35.27
2018-09-03T21:50:41.117Z,33.47
2018-09-03T21:53:37.062Z,34.27
2018-09-03T21:56:11.685Z,34.60
2018-09-03T21:58:46.756Z,36.20
2018-09-03T22:01:21.405Z,35.33
2018-09-03T22:03:56.034Z,35.03
2018-09-03T22:06:31.914Z,35.33
2018-09-03T22:09:07.192Z,34.27
2018-09-03T22:11:41.843Z,34.67
2018-09-03T22:14:16.436Z,33.57
2018-09-03T22:16:51.016Z,33.27
2018-09-03T22:19:25.593Z,34.77
2018-09-03T22:22:00.452Z,30.13
2018-09-03T22:24:35.199Z,35.23
2018-09-03T22:27:09.760Z,33.37
2018-09-03T22:29:44.248Z,28.50
2018-09-03T22:32:18.959Z,32.40
2018-09-03T22:34:53.488Z,32.97
2018-09-03T22:37:28.044Z,33.43
2018-09-03T22:40:02.726Z,34.07
2018-09-03T22:42:37.308Z,32.50
2018-09-03T22:45:22.013Z,33.57
2018-09-03T22:47:56.653Z,36.40
2018-09-03T22:50:31.374Z,36.53
2018-09-03T22:53:06.253Z,34.87
2018-09-03T22:55:40.825Z,36.07
2018-09-03T22:58:15.485Z,32.53
2018-09-03T23:00:50.405Z,35.07
2018-09-03T23:03:24.864Z,34.63
2018-09-03T23:05:59.497Z,38.57
2018-09-03T23:08:34.135Z,39.57
2018-09-03T23:11:08.927Z,39.27
2018-09-03T23:13:44.101Z,38.23
2018-09-03T23:16:35.601Z,40.37
2018-09-03T23:19:11.117Z,41.40
2018-09-03T23:21:45.736Z,35.47
2018-09-03T23:24:20.536Z,42.30
2018-09-03T23:27:09.061Z,41.87
2018-09-03T23:29:43.713Z,42.97
2018-09-03T23:32:23.245Z,42.20
2018-09-03T23:34:58.319Z,41.37
2018-09-03T23:37:32.808Z,40.50
2018-09-03T23:40:08.365Z,40.47
2018-09-03T23:42:43.188Z,43.93
2018-09-03T23:45:17.865Z,46.40
2018-09-03T23:47:52.364Z,47.47
2018-09-03T23:50:26.972Z,45.60
2018-09-03T23:53:01.650Z,48.43
2018-09-03T23:55:36.185Z,47.40
2018-09-03T23:58:10.862Z,46.23
